Time;durP1;ratioP1;P1;durP2;ratioP2;P2;SDS_P1;SDS_P2;PMS_P1;PMS_P2;Temp;Humidity;BMP_temperature;BMP_pressure;BME280_temperature;BME280_humidity;BME280_pressure;Samples;Min_cycle;Max_cycle;Signal;HPM_P1;HPM_P2
2021/06/06 00:02:09;;;;;;;;;;;27.90;93.50;;;;;;1934985;73;20260;-88
2021/06/06 00:04:44;;;;;;;;;;;27.90;93.70;;;;;;1950029;73;20191;-88
2021/06/06 00:07:14;;;;;;;;;;;27.90;93.70;;;;;;1935993;73;20227;-88
2021/06/06 00:09:44;;;;;;;;;;;27.90;93.70;;;;;;1937706;73;20207;-88
2021/06/06 00:12:14;;;;;;;;;;;27.90;93.20;;;;;;1917669;73;20212;-90
2021/06/06 00:14:44;;;;;;;;;;;28.00;93.40;;;;;;1946841;73;20215;-88
2021/06/06 00:17:14;;;;;;;;;;;28.00;93.70;;;;;;1925068;73;20240;-88
2021/06/06 00:19:44;;;;;;;;;;;27.90;93.70;;;;;;1945927;73;20215;-89
2021/06/06 00:22:14;;;;;;;;;;;28.00;92.70;;;;;;1923856;73;20514;-89
2021/06/06 00:24:44;;;;;;;;;;;28.00;92.60;;;;;;1922732;73;20173;-88
2021/06/06 00:27:13;;;;;;;;;;;28.00;93.40;;;;;;1919237;73;20211;-88
2021/06/06 00:29:44;;;;;;;;;;;28.00;93.90;;;;;;1857385;76;20182;-88
2021/06/06 00:32:14;;;;;;;;;;;28.00;93.40;;;;;;1872234;76;20132;-88
2021/06/06 00:34:57;;;;;;;;;;;28.10;92.80;;;;;;1854681;77;20326;-88
2021/06/06 00:37:28;;;;;;;;;;;28.10;93.40;;;;;;1857255;76;20131;-88
2021/06/06 00:39:58;;;;;;;;;;;28.10;93.40;;;;;;1854519;76;20214;-89
2021/06/06 00:42:28;;;;;;;;;;;28.10;93.60;;;;;;1857908;76;20222;-88
2021/06/06 00:44:58;;;;;;;;;;;28.00;93.60;;;;;;1850186;76;20168;-87
2021/06/06 00:47:29;;;;;;;;;;;28.10;93.40;;;;;;1852766;77;20225;-89
2021/06/06 00:50:07;;;;;;;;;;;28.10;93.40;;;;;;1893449;75;20131;-88
2021/06/06 00:52:39;;;;;;;;;;;28.10;93.50;;;;;;1861268;75;20136;-89
2021/06/06 00:55:13;;;;;;;;;;;28.10;93.30;;;;;;1876361;75;20287;-88
2021/06/06 00:57:46;;;;;;;;;;;28.10;93.40;;;;;;1841472;75;20208;-89
2021/06/06 01:00:28;;;;;;;;;;;28.10;93.70;;;;;;1869065;75;20122;-88
2021/06/06 01:02:54;;;;;;;;;;;28.20;93.60;;;;;;1848217;77;20224;-89
2021/06/06 01:05:23;;;;;;;;;;;28.20;93.40;;;;;;1839458;77;20254;-88
2021/06/06 01:07:53;;;;;;;;;;;28.20;93.40;;;;;;1873107;75;20200;-88
2021/06/06 01:10:24;;;;;;;;;;;28.20;93.30;;;;;;1874368;75;20268;-87
2021/06/06 01:12:55;;;;;;;;;;;28.20;93.30;;;;;;1872728;75;20716;-86
2021/06/06 01:15:26;;;;;;;;;;;28.20;93.50;;;;;;1858265;77;20228;-89
2021/06/06 01:17:57;;;;;;;;;;;28.20;93.20;;;;;;1884845;76;20504;-87
2021/06/06 01:20:28;;;;;;;;;;;28.20;93.50;;;;;;1873495;75;20178;-87
2021/06/06 01:22:59;;;;;;;;;;;28.20;93.60;;;;;;1848615;75;20268;-86
2021/06/06 01:25:31;;;;;;;;;;;28.20;93.60;;;;;;1849416;76;20182;-86
2021/06/06 01:28:20;;;;;;;;;;;28.20;93.80;;;;;;1799760;75;20156;-87
2021/06/06 01:30:51;;;;;;;;;;;28.20;93.60;;;;;;1870521;75;20194;-86
2021/06/06 01:33:22;;;;;;;;;;;28.20;94.00;;;;;;1880585;75;20494;-90
2021/06/06 01:36:01;;;;;;;;;;;28.20;93.70;;;;;;1872339;75;20240;-89
2021/06/06 01:38:34;;;;;;;;;;;28.30;93.70;;;;;;1871632;75;20167;-90
2021/06/06 01:41:06;;;;;;;;;;;28.30;93.80;;;;;;1867861;75;20226;-89
2021/06/06 01:43:37;;;;;;;;;;;28.30;93.70;;;;;;1868202;75;20157;-90
2021/06/06 01:46:08;;;;;;;;;;;28.30;93.60;;;;;;1867590;76;20212;-90
2021/06/06 01:48:42;;;;;;;;;;;28.40;93.80;;;;;;1869998;76;20237;-90
2021/06/06 01:51:14;;;;;;;;;;;28.40;93.80;;;;;;1885313;75;20198;-90
2021/06/06 01:53:45;;;;;;;;;;;28.40;93.60;;;;;;1846362;76;20180;-89
2021/06/06 01:56:16;;;;;;;;;;;28.50;93.50;;;;;;1848588;76;20166;-90
2021/06/06 01:58:47;;;;;;;;;;;28.60;93.30;;;;;;1851977;77;20233;-90
2021/06/06 02:01:19;;;;;;;;;;;28.60;93.30;;;;;;1844878;76;20223;-89
2021/06/06 02:03:50;;;;;;;;;;;28.70;93.50;;;;;;1851740;76;20195;-89
2021/06/06 02:06:21;;;;;;;;;;;28.70;93.30;;;;;;1870741;75;20203;-88
2021/06/06 02:08:51;;;;;;;;;;;28.80;93.20;;;;;;1921585;73;20204;-90
2021/06/06 02:11:22;;;;;;;;;;;28.80;93.20;;;;;;1924869;73;20201;-90
2021/06/06 02:13:53;;;;;;;;;;;28.80;93.40;;;;;;1928203;73;20205;-89
2021/06/06 02:16:25;;;;;;;;;;;28.80;92.90;;;;;;1923128;73;20217;-89
2021/06/06 02:18:55;;;;;;;;;;;28.80;93.10;;;;;;1919777;74;20259;-90
2021/06/06 02:21:28;;;;;;;;;;;28.90;93.00;;;;;;1926892;73;20207;-92
2021/06/06 02:23:58;;;;;;;;;;;28.80;93.00;;;;;;1919988;73;20196;-89
2021/06/06 02:26:29;;;;;;;;;;;28.90;93.00;;;;;;1920989;73;20234;-91
2021/06/06 02:29:00;;;;;;;;;;;28.90;93.00;;;;;;1918719;74;20118;-89
2021/06/06 02:31:31;;;;;;;;;;;28.90;93.00;;;;;;1932436;73;20126;-89
2021/06/06 02:34:04;;;;;;;;;;;29.00;92.80;;;;;;1918902;74;20148;-87
2021/06/06 02:36:35;;;;;;;;;;;29.00;92.70;;;;;;1871890;75;20207;-92
2021/06/06 02:39:04;;;;;;;;;;;29.10;92.70;;;;;;1873385;75;20153;-89
2021/06/06 02:41:36;;;;;;;;;;;29.10;92.60;;;;;;1870808;75;20164;-89
2021/06/06 02:44:07;;;;;;;;;;;29.30;92.80;;;;;;1874869;75;20216;-91
2021/06/06 02:47:24;;;;;;;;;;;29.30;92.70;;;;;;1861325;75;20182;-90
2021/06/06 02:49:17;;;;;;;;;;;29.30;92.50;;;;;;1836181;75;20224;-91
2021/06/06 02:51:51;;;;;;;;;;;29.40;92.50;;;;;;1930029;73;20165;-88
2021/06/06 02:54:22;;;;;;;;;;;29.40;92.30;;;;;;1925594;73;20206;-90
2021/06/06 02:56:54;;;;;;;;;;;29.50;92.10;;;;;;1928911;73;20233;-89
2021/06/06 02:59:26;;;;;;;;;;;29.50;92.10;;;;;;1931626;73;20228;-90
2021/06/06 03:01:57;;;;;;;;;;;29.60;91.90;;;;;;1931324;73;20386;-90
2021/06/06 03:04:30;;;;;;;;;;;29.60;91.60;;;;;;1927846;73;20161;-90
2021/06/06 03:06:59;;;;;;;;;;;29.60;91.90;;;;;;1931435;73;20191;-90
2021/06/06 03:09:29;;;;;;;;;;;29.70;91.90;;;;;;1931108;73;20159;-91
2021/06/06 03:12:00;;;;;;;;;;;29.80;91.80;;;;;;1929690;73;20188;-90
2021/06/06 03:14:31;;;;;;;;;;;29.90;91.70;;;;;;1929957;73;20228;-89
2021/06/06 03:17:02;;;;;;;;;;;29.90;91.60;;;;;;1930485;73;20136;-90
2021/06/06 03:19:34;;;;;;;;;;;30.00;91.50;;;;;;1932590;73;20175;-92
2021/06/06 03:22:05;;;;;;;;;;;30.10;91.50;;;;;;1931983;73;20187;-89
2021/06/06 03:24:36;;;;;;;;;;;30.20;91.30;;;;;;1929283;73;20218;-90
2021/06/06 03:27:07;;;;;;;;;;;30.30;91.20;;;;;;1942194;73;20255;-91
2021/06/06 03:29:39;;;;;;;;;;;30.40;91.00;;;;;;1933960;73;20152;-91
2021/06/06 03:32:10;;;;;;;;;;;30.50;90.80;;;;;;1931702;73;20152;-91
2021/06/06 03:34:40;;;;;;;;;;;30.60;90.70;;;;;;1931503;73;20480;-90
2021/06/06 03:37:10;;;;;;;;;;;30.60;90.10;;;;;;1930141;73;20223;-89
2021/06/06 03:39:40;;;;;;;;;;;30.60;90.20;;;;;;1954002;73;20277;-91
2021/06/06 03:42:11;;;;;;;;;;;30.70;90.20;;;;;;1933511;73;20236;-91
2021/06/06 03:44:41;;;;;;;;;;;30.80;90.20;;;;;;1932375;73;20179;-90
2021/06/06 03:47:11;;;;;;;;;;;30.90;90.00;;;;;;1925385;73;20177;-89
2021/06/06 03:49:41;;;;;;;;;;;30.90;90.00;;;;;;1920786;74;20219;-91
2021/06/06 03:52:16;;;;;;;;;;;31.00;88.30;;;;;;1920415;74;20164;-89
2021/06/06 03:54:43;;;;;;;;;;;31.00;88.10;;;;;;1917506;73;20177;-89
2021/06/06 03:57:13;;;;;;;;;;;31.00;87.70;;;;;;1925346;73;20236;-92
2021/06/06 03:59:43;;;;;;;;;;;31.00;88.70;;;;;;1920917;73;20220;-92
2021/06/06 04:02:13;;;;;;;;;;;30.90;88.30;;;;;;1919439;73;20560;-91
2021/06/06 04:04:43;;;;;;;;;;;30.90;88.70;;;;;;1911697;73;20206;-90
2021/06/06 04:07:13;;;;;;;;;;;30.90;88.30;;;;;;1911838;74;20180;-91
2021/06/06 04:09:43;;;;;;;;;;;30.80;88.50;;;;;;1916160;73;20259;-94
2021/06/06 04:12:14;;;;;;;;;;;30.80;88.90;;;;;;1915800;74;20162;-87
2021/06/06 04:14:44;;;;;;;;;;;30.80;89.20;;;;;;1915655;74;20283;-91
2021/06/06 04:17:14;;;;;;;;;;;30.80;89.30;;;;;;1918308;74;20646;-91
2021/06/06 04:19:44;;;;;;;;;;;30.90;89.30;;;;;;1915238;73;20242;-89
2021/06/06 04:22:14;;;;;;;;;;;30.90;89.30;;;;;;1917150;73;20236;-79
2021/06/06 04:24:44;;;;;;;;;;;30.90;88.10;;;;;;1919613;74;20506;-80
2021/06/06 04:27:15;;;;;;;;;;;30.90;87.90;;;;;;1923742;73;20412;-80
2021/06/06 04:29:46;;;;;;;;;;;31.00;86.70;;;;;;1912294;75;20164;-79
2021/06/06 04:32:17;;;;;;;;;;;31.00;87.20;;;;;;1912669;75;20427;-80
2021/06/06 04:34:48;;;;;;;;;;;31.10;87.30;;;;;;1916585;74;20171;-79
2021/06/06 04:37:19;;;;;;;;;;;31.10;87.20;;;;;;1918200;75;20176;-80
2021/06/06 04:39:49;;;;;;;;;;;31.20;87.30;;;;;;1912123;75;20520;-80
2021/06/06 04:42:21;;;;;;;;;;;31.30;86.70;;;;;;1903773;74;20185;-80
2021/06/06 04:44:51;;;;;;;;;;;31.40;86.60;;;;;;1915231;74;20264;-80
2021/06/06 04:47:21;;;;;;;;;;;31.50;86.00;;;;;;1929482;73;20396;-79
2021/06/06 04:49:52;;;;;;;;;;;31.50;84.00;;;;;;1931425;73;20553;-79
2021/06/06 04:52:22;;;;;;;;;;;31.50;83.60;;;;;;1931164;73;20161;-79
2021/06/06 04:54:51;;;;;;;;;;;31.50;83.80;;;;;;1949072;73;20167;-79
2021/06/06 04:57:21;;;;;;;;;;;31.50;83.70;;;;;;1927907;73;20130;-80
2021/06/06 04:59:51;;;;;;;;;;;31.60;84.30;;;;;;1936581;73;20265;-79
2021/06/06 05:02:21;;;;;;;;;;;31.70;84.00;;;;;;1932362;73;20164;-80
2021/06/06 05:04:52;;;;;;;;;;;31.80;84.10;;;;;;1923402;73;20118;-80
2021/06/06 05:07:22;;;;;;;;;;;31.90;82.10;;;;;;1921812;74;20245;-79
2021/06/06 05:09:52;;;;;;;;;;;31.90;80.90;;;;;;1949222;73;20272;-79
2021/06/06 05:12:22;;;;;;;;;;;31.90;81.10;;;;;;1922847;73;20197;-78
2021/06/06 05:14:53;;;;;;;;;;;32.00;81.10;;;;;;1930013;73;20227;-80
2021/06/06 05:17:23;;;;;;;;;;;32.10;80.40;;;;;;1922941;73;20198;-79
2021/06/06 05:19:52;;;;;;;;;;;32.30;76.40;;;;;;1938059;73;20217;-79
2021/06/06 05:22:23;;;;;;;;;;;32.40;75.50;;;;;;1931928;73;20179;-80
2021/06/06 05:24:53;;;;;;;;;;;32.60;75.80;;;;;;1934899;73;20159;-79
2021/06/06 05:27:23;;;;;;;;;;;32.80;72.60;;;;;;1929720;73;20191;-78
2021/06/06 05:29:53;;;;;;;;;;;32.80;72.90;;;;;;1929816;73;20221;-79
2021/06/06 05:32:24;;;;;;;;;;;32.90;72.70;;;;;;1942083;73;20134;-79
2021/06/06 05:34:54;;;;;;;;;;;33.00;73.00;;;;;;1934107;73;20224;-79
2021/06/06 05:37:24;;;;;;;;;;;33.10;72.70;;;;;;1931985;73;20201;-79
2021/06/06 05:39:54;;;;;;;;;;;33.20;71.10;;;;;;1926636;73;20177;-79
2021/06/06 05:42:24;;;;;;;;;;;33.20;71.00;;;;;;1928938;73;20280;-79
2021/06/06 05:44:54;;;;;;;;;;;33.20;71.10;;;;;;1930856;73;20212;-79
2021/06/06 05:47:24;;;;;;;;;;;33.30;70.60;;;;;;1927732;73;20218;-80
2021/06/06 05:49:54;;;;;;;;;;;33.30;71.00;;;;;;1919474;73;20182;-79
2021/06/06 05:52:25;;;;;;;;;;;33.30;70.70;;;;;;1917420;73;20218;-80
2021/06/06 05:54:55;;;;;;;;;;;33.30;71.30;;;;;;1918221;74;20525;-79
2021/06/06 05:57:25;;;;;;;;;;;33.40;71.00;;;;;;1877865;75;20540;-78
2021/06/06 05:59:55;;;;;;;;;;;33.50;69.50;;;;;;1838375;77;20225;-80
2021/06/06 06:02:25;;;;;;;;;;;33.50;70.10;;;;;;1841596;76;20436;-80
2021/06/06 06:04:55;;;;;;;;;;;33.50;71.30;;;;;;1882314;76;20158;-80
2021/06/06 06:07:25;;;;;;;;;;;33.50;71.20;;;;;;1857268;77;20165;-80
2021/06/06 06:09:55;;;;;;;;;;;33.50;70.20;;;;;;1829605;78;20157;-79
2021/06/06 06:12:25;;;;;;;;;;;33.40;71.30;;;;;;1876879;75;20166;-80
2021/06/06 06:14:55;;;;;;;;;;;33.40;72.60;;;;;;1886443;75;20420;-80
2021/06/06 06:17:25;;;;;;;;;;;33.40;72.00;;;;;;1871370;75;20202;-80
2021/06/06 06:19:55;;;;;;;;;;;33.40;70.20;;;;;;1873538;75;20630;-79
2021/06/06 06:22:25;;;;;;;;;;;33.30;70.70;;;;;;1879801;76;20239;-80
2021/06/06 06:24:56;;;;;;;;;;;33.20;71.60;;;;;;1856600;77;20356;-80
2021/06/06 06:27:26;;;;;;;;;;;33.20;71.90;;;;;;1878000;75;20252;-80
2021/06/06 06:29:56;;;;;;;;;;;33.20;71.90;;;;;;1872116;75;20184;-80
2021/06/06 06:32:27;;;;;;;;;;;33.30;72.10;;;;;;1871906;76;20179;-80
2021/06/06 06:34:57;;;;;;;;;;;33.50;71.20;;;;;;1837018;78;20241;-80
2021/06/06 06:37:27;;;;;;;;;;;33.50;70.30;;;;;;1865752;77;20180;-80
2021/06/06 06:39:57;;;;;;;;;;;33.50;68.50;;;;;;1883985;75;20170;-80
2021/06/06 06:42:27;;;;;;;;;;;33.50;69.10;;;;;;1871678;75;20188;-80
2021/06/06 06:44:58;;;;;;;;;;;33.60;67.90;;;;;;1881963;75;20127;-80
2021/06/06 06:47:30;;;;;;;;;;;33.70;68.20;;;;;;1875948;75;20320;-80
2021/06/06 06:49:59;;;;;;;;;;;33.60;67.10;;;;;;1873801;75;20245;-80
2021/06/06 06:52:36;;;;;;;;;;;33.60;68.60;;;;;;1871306;75;20217;-80
2021/06/06 06:55:00;;;;;;;;;;;33.70;68.00;;;;;;1878292;75;20134;-80
2021/06/06 06:57:30;;;;;;;;;;;33.70;67.00;;;;;;1841692;77;20449;-80
2021/06/06 07:00:00;;;;;;;;;;;33.70;67.40;;;;;;1859598;77;20172;-80
2021/06/06 07:02:30;;;;;;;;;;;33.70;68.40;;;;;;1927412;74;20197;-80
2021/06/06 07:05:00;;;;;;;;;;;33.80;68.20;;;;;;1915085;74;20142;-79
2021/06/06 07:07:30;;;;;;;;;;;33.90;67.40;;;;;;1912424;74;20201;-79
2021/06/06 07:10:02;;;;;;;;;;;34.00;67.00;;;;;;1913340;74;20369;-80
2021/06/06 07:12:32;;;;;;;;;;;34.00;66.50;;;;;;1913724;75;20169;-80
2021/06/06 07:15:02;;;;;;;;;;;33.90;67.10;;;;;;1910090;74;20220;-80
2021/06/06 07:17:32;;;;;;;;;;;33.90;67.50;;;;;;1907013;74;20182;-78
2021/06/06 07:20:02;;;;;;;;;;;33.80;65.30;;;;;;1912927;74;20227;-78
2021/06/06 07:22:33;;;;;;;;;;;33.80;66.80;;;;;;1913933;74;20189;-79
2021/06/06 07:25:04;;;;;;;;;;;33.70;67.30;;;;;;1897939;74;20126;-79
2021/06/06 07:27:37;;;;;;;;;;;33.60;67.50;;;;;;1911633;75;20225;-77
2021/06/06 07:30:07;;;;;;;;;;;33.50;68.20;;;;;;1907059;74;20206;-78
2021/06/06 07:32:38;;;;;;;;;;;33.50;69.30;;;;;;1908458;74;20226;-79
2021/06/06 07:35:08;;;;;;;;;;;33.50;69.00;;;;;;1909626;74;20231;-78
2021/06/06 07:37:38;;;;;;;;;;;33.40;70.20;;;;;;1909238;74;20248;-78
2021/06/06 07:40:09;;;;;;;;;;;33.20;69.70;;;;;;1911722;74;20192;-78
2021/06/06 07:42:39;;;;;;;;;;;33.00;70.80;;;;;;1914370;75;20296;-79
2021/06/06 07:45:11;;;;;;;;;;;32.80;73.40;;;;;;1915272;74;20173;-79
2021/06/06 07:47:42;;;;;;;;;;;32.50;74.30;;;;;;1915197;74;20189;-80
2021/06/06 07:50:13;;;;;;;;;;;32.30;77.30;;;;;;1918605;74;20482;-78
2021/06/06 07:52:43;;;;;;;;;;;32.10;81.40;;;;;;1920649;74;20248;-78
2021/06/06 07:55:15;;;;;;;;;;;31.90;83.00;;;;;;1915143;74;20188;-79
2021/06/06 07:57:46;;;;;;;;;;;31.70;83.90;;;;;;1920230;74;20176;-79
2021/06/06 08:00:17;;;;;;;;;;;31.50;84.60;;;;;;1920127;74;20165;-80
2021/06/06 08:02:48;;;;;;;;;;;31.40;88.00;;;;;;1913269;75;20207;-79
2021/06/06 08:05:19;;;;;;;;;;;31.40;85.80;;;;;;1913403;74;20493;-79
2021/06/06 08:07:49;;;;;;;;;;;31.30;84.60;;;;;;1881435;75;20161;-79
2021/06/06 08:10:20;;;;;;;;;;;31.40;84.10;;;;;;1843591;76;20550;-79
2021/06/06 08:12:50;;;;;;;;;;;31.50;83.10;;;;;;1884512;75;20122;-79
2021/06/06 08:15:21;;;;;;;;;;;31.60;78.90;;;;;;1877385;75;20172;-79
2021/06/06 08:17:53;;;;;;;;;;;31.70;79.80;;;;;;1875953;76;20203;-80
2021/06/06 08:20:25;;;;;;;;;;;31.90;78.30;;;;;;1873468;75;20172;-79
2021/06/06 08:22:55;;;;;;;;;;;32.00;72.00;;;;;;1875914;76;20251;-79
2021/06/06 08:25:26;;;;;;;;;;;32.00;70.90;;;;;;1874624;75;20203;-78
2021/06/06 08:27:56;;;;;;;;;;;32.10;71.10;;;;;;1875684;76;20517;-78
2021/06/06 08:30:27;;;;;;;;;;;32.10;70.70;;;;;;1879759;75;20156;-79
2021/06/06 08:32:57;;;;;;;;;;;32.20;71.60;;;;;;1917732;74;20169;-78
2021/06/06 08:35:29;;;;;;;;;;;32.30;72.00;;;;;;1903931;74;20125;-79
2021/06/06 08:37:59;;;;;;;;;;;32.30;71.90;;;;;;1916436;74;20229;-78
2021/06/06 08:40:31;;;;;;;;;;;32.40;69.50;;;;;;1914908;74;20216;-78
2021/06/06 08:43:02;;;;;;;;;;;32.40;70.00;;;;;;1917230;74;20205;-78
2021/06/06 08:45:33;;;;;;;;;;;32.40;70.70;;;;;;1916505;74;20204;-78
2021/06/06 08:48:05;;;;;;;;;;;32.30;70.70;;;;;;1913933;74;20271;-78
2021/06/06 08:50:36;;;;;;;;;;;32.30;71.40;;;;;;1916618;73;20170;-78
2021/06/06 08:53:07;;;;;;;;;;;32.30;70.50;;;;;;1915039;74;20184;-78
2021/06/06 08:55:40;;;;;;;;;;;32.30;70.40;;;;;;1923329;73;20261;-78
2021/06/06 08:58:11;;;;;;;;;;;32.30;72.30;;;;;;1922355;73;20156;-78
2021/06/06 09:00:42;;;;;;;;;;;32.30;73.30;;;;;;1921696;73;20192;-78
2021/06/06 09:03:15;;;;;;;;;;;32.30;72.50;;;;;;1916229;73;20198;-78
2021/06/06 09:05:45;;;;;;;;;;;32.20;72.10;;;;;;1916023;73;20229;-78
2021/06/06 09:08:17;;;;;;;;;;;32.30;73.10;;;;;;1917979;73;20225;-77
2021/06/06 09:11:06;;;;;;;;;;;32.20;76.00;;;;;;1912892;73;20229;-78
2021/06/06 09:13:36;;;;;;;;;;;32.00;77.60;;;;;;1774172;79;20245;-79
2021/06/06 09:16:07;;;;;;;;;;;31.90;79.20;;;;;;1801503;79;20347;-79
2021/06/06 09:18:38;;;;;;;;;;;31.70;80.20;;;;;;1800400;79;20248;-79
2021/06/06 09:21:09;;;;;;;;;;;31.70;80.60;;;;;;1802518;79;20460;-78
2021/06/06 09:23:39;;;;;;;;;;;31.50;81.70;;;;;;1799189;79;20531;-78
2021/06/06 09:26:09;;;;;;;;;;;31.40;80.00;;;;;;1802025;79;20227;-80
2021/06/06 09:28:40;;;;;;;;;;;31.30;82.50;;;;;;1793767;79;20237;-79
2021/06/06 09:31:10;;;;;;;;;;;31.30;82.90;;;;;;1802919;79;20169;-79
2021/06/06 09:33:42;;;;;;;;;;;31.20;82.20;;;;;;1804897;79;20217;-79
2021/06/06 09:36:13;;;;;;;;;;;31.20;82.90;;;;;;1803684;79;20139;-79
2021/06/06 09:38:45;;;;;;;;;;;31.20;83.10;;;;;;1815600;78;20422;-80
2021/06/06 09:41:34;;;;;;;;;;;31.10;82.40;;;;;;1798420;80;20248;-80
2021/06/06 09:44:03;;;;;;;;;;;31.00;82.20;;;;;;1774815;80;20570;-80
2021/06/06 09:46:34;;;;;;;;;;;30.90;82.90;;;;;;1771907;80;20497;-80
2021/06/06 09:49:06;;;;;;;;;;;30.70;83.50;;;;;;1778240;80;20264;-79
2021/06/06 09:51:36;;;;;;;;;;;30.70;83.90;;;;;;1783050;79;20265;-80
2021/06/06 09:54:07;;;;;;;;;;;30.60;84.10;;;;;;1769539;80;20220;-80
2021/06/06 09:56:37;;;;;;;;;;;30.50;84.10;;;;;;1756005;82;20188;-80
2021/06/06 09:59:09;;;;;;;;;;;30.40;84.20;;;;;;1770508;80;20193;-79
2021/06/06 10:01:40;;;;;;;;;;;30.30;86.00;;;;;;1785101;80;20249;-80
2021/06/06 10:04:11;;;;;;;;;;;30.30;84.60;;;;;;1771654;80;20200;-79
2021/06/06 10:06:42;;;;;;;;;;;30.20;83.90;;;;;;1778544;80;20224;-79
2021/06/06 10:09:14;;;;;;;;;;;30.10;84.90;;;;;;1745180;80;20488;-79
2021/06/06 10:11:45;;;;;;;;;;;30.00;86.20;;;;;;1769483;78;20252;-79
2021/06/06 10:14:17;;;;;;;;;;;30.00;85.40;;;;;;1824740;77;20221;-79
2021/06/06 10:16:50;;;;;;;;;;;29.90;85.30;;;;;;1809965;78;20204;-80
2021/06/06 10:19:21;;;;;;;;;;;29.90;84.90;;;;;;1816761;78;20210;-80
2021/06/06 10:21:53;;;;;;;;;;;29.80;84.50;;;;;;1798721;78;20262;-80
2021/06/06 10:24:24;;;;;;;;;;;29.80;86.20;;;;;;1810577;77;20453;-80
2021/06/06 10:26:55;;;;;;;;;;;29.80;87.20;;;;;;1813561;78;20125;-80
2021/06/06 10:29:27;;;;;;;;;;;29.70;86.50;;;;;;1809673;78;20214;-80
2021/06/06 10:31:58;;;;;;;;;;;29.70;87.60;;;;;;1821817;78;20172;-80
2021/06/06 10:34:28;;;;;;;;;;;29.70;89.60;;;;;;1810255;78;20200;-81
2021/06/06 10:36:58;;;;;;;;;;;29.60;88.50;;;;;;1810839;77;20518;-81
2021/06/06 10:39:29;;;;;;;;;;;29.60;87.90;;;;;;1812425;78;20523;-81
2021/06/06 10:42:01;;;;;;;;;;;29.60;89.00;;;;;;1811921;78;20308;-80
2021/06/06 10:44:32;;;;;;;;;;;29.60;90.20;;;;;;1811132;78;20139;-80
2021/06/06 10:47:02;;;;;;;;;;;29.60;89.50;;;;;;1815027;78;20224;-80
2021/06/06 10:49:35;;;;;;;;;;;29.50;90.00;;;;;;1810907;77;20232;-82
2021/06/06 10:52:06;;;;;;;;;;;29.50;89.20;;;;;;1813585;78;20175;-80
2021/06/06 10:54:37;;;;;;;;;;;29.50;89.30;;;;;;1820635;78;20119;-79
2021/06/06 10:57:08;;;;;;;;;;;29.50;88.90;;;;;;1806689;78;20185;-79
2021/06/06 10:59:39;;;;;;;;;;;29.50;87.90;;;;;;1806663;78;20171;-78
2021/06/06 11:02:10;;;;;;;;;;;29.60;89.10;;;;;;1806051;77;20285;-78
2021/06/06 11:04:42;;;;;;;;;;;29.50;87.60;;;;;;1826616;78;20265;-79
2021/06/06 11:07:13;;;;;;;;;;;29.50;87.70;;;;;;1819804;78;20168;-79
2021/06/06 11:09:47;;;;;;;;;;;29.60;88.50;;;;;;1825814;78;20202;-79
2021/06/06 11:12:16;;;;;;;;;;;29.50;88.60;;;;;;1819111;78;20334;-78
2021/06/06 11:14:49;;;;;;;;;;;29.50;90.40;;;;;;1845117;77;20197;-80
2021/06/06 11:17:20;;;;;;;;;;;29.50;90.50;;;;;;1839752;77;20192;-79
2021/06/06 11:19:50;;;;;;;;;;;29.50;90.30;;;;;;1851476;76;20459;-80
2021/06/06 11:22:21;;;;;;;;;;;29.40;90.50;;;;;;1849272;77;20490;-80
2021/06/06 11:24:53;;;;;;;;;;;29.40;90.70;;;;;;1806884;79;20135;-80
2021/06/06 11:27:28;;;;;;;;;;;29.30;91.50;;;;;;1811704;78;20256;-79
2021/06/06 11:29:55;;;;;;;;;;;29.30;91.50;;;;;;1818881;79;20258;-79
2021/06/06 11:32:26;;;;;;;;;;;29.20;91.30;;;;;;1818932;78;20210;-80
2021/06/06 11:34:57;;;;;;;;;;;29.20;90.40;;;;;;1822226;78;20190;-80
2021/06/06 11:37:28;;;;;;;;;;;29.10;90.20;;;;;;1843998;77;20139;-79
2021/06/06 11:40:00;;;;;;;;;;;29.10;90.20;;;;;;1839931;77;20480;-80
2021/06/06 11:42:31;;;;;;;;;;;29.10;90.80;;;;;;1838789;77;20171;-79
2021/06/06 11:45:02;;;;;;;;;;;29.10;90.70;;;;;;1836547;77;20195;-80
2021/06/06 11:47:33;;;;;;;;;;;29.10;92.50;;;;;;1836837;77;20174;-80
2021/06/06 11:50:03;;;;;;;;;;;29.10;92.90;;;;;;1839140;77;20363;-80
2021/06/06 11:52:35;;;;;;;;;;;29.10;92.50;;;;;;1840690;77;20125;-79
2021/06/06 11:55:06;;;;;;;;;;;29.00;91.20;;;;;;1853794;77;20149;-80
2021/06/06 11:57:37;;;;;;;;;;;29.00;91.80;;;;;;1820128;78;20129;-80
2021/06/06 12:00:09;;;;;;;;;;;29.00;92.80;;;;;;1819472;78;20512;-79
2021/06/06 12:02:41;;;;;;;;;;;29.00;92.20;;;;;;1815754;78;20195;-79
2021/06/06 12:05:13;;;;;;;;;;;28.90;93.10;;;;;;1811072;78;20138;-78
2021/06/06 12:07:44;;;;;;;;;;;29.00;93.30;;;;;;1817665;78;20223;-79
2021/06/06 12:10:15;;;;;;;;;;;28.90;93.40;;;;;;1814127;78;20726;-79
2021/06/06 12:12:46;;;;;;;;;;;28.90;93.50;;;;;;1851351;77;20138;-79
2021/06/06 12:15:18;;;;;;;;;;;28.90;93.70;;;;;;1820669;78;20178;-80
2021/06/06 12:17:51;;;;;;;;;;;28.80;93.60;;;;;;1834979;77;20142;-81
2021/06/06 12:20:22;;;;;;;;;;;28.80;94.00;;;;;;1854453;77;20168;-81
2021/06/06 12:22:52;;;;;;;;;;;28.80;93.30;;;;;;1820522;77;20209;-81
2021/06/06 12:25:25;;;;;;;;;;;28.70;92.60;;;;;;1859179;76;20195;-80
2021/06/06 12:27:55;;;;;;;;;;;28.70;93.60;;;;;;1817229;78;20888;-80
2021/06/06 12:30:27;;;;;;;;;;;28.60;92.20;;;;;;1812840;78;20202;-80
2021/06/06 12:32:58;;;;;;;;;;;28.60;92.20;;;;;;1840079;78;20221;-80
2021/06/06 12:35:30;;;;;;;;;;;28.60;93.10;;;;;;1840338;78;20455;-81
2021/06/06 12:38:01;;;;;;;;;;;28.50;93.00;;;;;;1840214;78;20771;-79
2021/06/06 12:40:33;;;;;;;;;;;28.50;92.40;;;;;;1832759;77;20144;-80
2021/06/06 12:43:04;;;;;;;;;;;28.50;92.20;;;;;;1820580;79;20165;-80
2021/06/06 12:45:36;;;;;;;;;;;28.50;92.50;;;;;;1814435;78;20165;-80
2021/06/06 12:48:08;;;;;;;;;;;28.50;92.80;;;;;;1831694;78;20123;-78
2021/06/06 12:50:39;;;;;;;;;;;28.50;92.60;;;;;;1823138;78;20125;-81
2021/06/06 12:53:09;;;;;;;;;;;28.40;93.10;;;;;;1826157;78;20232;-79
2021/06/06 12:55:41;;;;;;;;;;;28.40;92.70;;;;;;1824226;78;20205;-79
2021/06/06 12:58:12;;;;;;;;;;;28.30;92.80;;;;;;1829853;78;20201;-78
2021/06/06 13:00:45;;;;;;;;;;;28.30;92.80;;;;;;1840189;78;20211;-77
2021/06/06 13:03:16;;;;;;;;;;;28.30;92.60;;;;;;1823057;79;20249;-79
2021/06/06 13:05:49;;;;;;;;;;;28.20;93.00;;;;;;1832374;78;20126;-80
2021/06/06 13:08:21;;;;;;;;;;;28.20;93.10;;;;;;1832566;78;20477;-77
2021/06/06 13:10:52;;;;;;;;;;;28.20;92.60;;;;;;1819968;78;20228;-77
2021/06/06 13:13:23;;;;;;;;;;;28.10;93.00;;;;;;1825061;78;20201;-80
2021/06/06 13:15:54;;;;;;;;;;;28.10;92.60;;;;;;1854995;77;20216;-80
2021/06/06 13:18:25;;;;;;;;;;;28.10;92.50;;;;;;1818259;78;20183;-81
2021/06/06 13:20:56;;;;;;;;;;;28.10;92.40;;;;;;1812434;78;20163;-80
2021/06/06 13:23:27;;;;;;;;;;;28.10;92.70;;;;;;1817227;78;20170;-80
2021/06/06 13:25:58;;;;;;;;;;;28.10;92.60;;;;;;1819844;78;20477;-80
2021/06/06 13:28:30;;;;;;;;;;;28.10;92.50;;;;;;1817191;78;20221;-80
2021/06/06 13:31:06;;;;;;;;;;;28.10;92.40;;;;;;1811271;78;20469;-80
2021/06/06 13:33:34;;;;;;;;;;;28.00;92.60;;;;;;1817232;77;20215;-79
2021/06/06 13:36:04;;;;;;;;;;;28.00;92.40;;;;;;1846773;76;20223;-80
2021/06/06 13:38:35;;;;;;;;;;;28.00;92.50;;;;;;1829060;77;20246;-80
2021/06/06 13:44:00;;;;;;;;;;;28.00;92.10;;;;;;1731520;80;20153;-93
2021/06/06 13:46:52;;;;;;;;;;;28.00;92.30;;;;;;1772656;79;20709;-93
2021/06/06 13:49:33;;;;;;;;;;;28.00;92.30;;;;;;1751728;79;20173;-92
2021/06/06 13:52:19;;;;;;;;;;;28.00;92.20;;;;;;1760436;79;20337;-92
2021/06/06 13:55:27;;;;;;;;;;;;;;;;;;;;;
2021/06/06 13:58:10;;;;;;;;;;;28.00;92.20;;;;;;1756591;80;20247;-88
2021/06/06 14:00:39;;;;;;;;;;;28.00;92.30;;;;;;1772835;79;20288;-89
2021/06/06 14:03:27;;;;;;;;;;;28.00;92.10;;;;;;1774897;79;21119;-90
2021/06/06 14:06:01;;;;;;;;;;;28.00;92.10;;;;;;1774774;79;20704;-89
2021/06/06 14:08:35;;;;;;;;;;;28.00;92.10;;;;;;1772921;79;20282;-92
2021/06/06 14:11:15;;;;;;;;;;;28.00;92.50;;;;;;1772653;79;20206;-91
2021/06/06 14:13:58;;;;;;;;;;;28.00;92.20;;;;;;1773472;79;20221;-90
2021/06/06 14:16:58;;;;;;;;;;;28.00;92.60;;;;;;1764655;80;20298;-90
2021/06/06 14:19:04;;;;;;;;;;;28.00;92.30;;;;;;1758080;80;20258;-90
2021/06/06 14:21:56;;;;;;;;;;;28.00;92.50;;;;;;1803008;77;20289;-89
2021/06/06 14:24:25;;;;;;;;;;;28.00;92.90;;;;;;1784089;78;20211;-91
2021/06/06 14:27:06;;;;;;;;;;;28.00;93.10;;;;;;1786038;78;20152;-90
2021/06/06 14:29:45;;;;;;;;;;;28.10;92.60;;;;;;1799320;78;20176;-90
2021/06/06 14:32:25;;;;;;;;;;;28.10;92.20;;;;;;1787424;78;20440;-92
2021/06/06 14:34:55;;;;;;;;;;;28.10;92.70;;;;;;1791970;78;20506;-91
2021/06/06 14:37:29;;;;;;;;;;;28.00;92.40;;;;;;1793847;78;20239;-91
2021/06/06 14:39:58;;;;;;;;;;;28.00;92.30;;;;;;1790019;78;20250;-92
2021/06/06 14:42:37;;;;;;;;;;;28.00;92.30;;;;;;1792719;78;20215;-92
2021/06/06 14:45:09;;;;;;;;;;;28.00;92.70;;;;;;1795789;78;20243;-93
2021/06/06 14:47:58;;;;;;;;;;;28.00;93.20;;;;;;1811143;77;20273;-89